Aeroporto :
LOGIN :

Iscrizione | Disclaimer

   EN    FR    IT 

 










Sommario :    VFR   VFR Marginale   IFR   IFR Intensivo   IFR Molto Intensivo
Visibilità : 
Base nubi : 
>= 8 km
>= 3000ft
5 / 8 km
1000 / 3000 ft
1500m / 5 km
500 / 1000 ft
800 / 1500m
200 / 500 ft
< 800m
< 200 ft
Simboli :   Temporali  Nebbia  Neve Forte  Precipitazioni Forti  Vento > 20 kt
SIGMETs :   Varie  Temporali  Ghiacco  Turbolenza  Onda orograficha  Ceneri Vulcaniche






- Altitudine del aeroporto : 74 ft
- Codice IATA : LRH


LFBH - La Rochelle Ile de Ré

ULTIMO METAR :
  • 231500Z AUTO VRB05KT 2000 R27/1200U TSRA BR FEW008/// BKN018/// BKN030/// ///CB 19/17 Q1005 TEMPO VRB15G30KT 4000 SHRA

METARs OBSOLETI :
  • 231430Z AUTO 20010KT 3800 1400 R27/1600D +TSRA BR FEW038/// SCT046/// OVC054/// ///CB 19/17 Q1006 TEMPO VRB15G30KT SHRA
  • 231400Z AUTO 19014KT 9999 ///CB 21/15 Q1006 TEMPO VRB15G30KT 4000 SHRA BKN010 BKN015CB
  • 231330Z AUTO 18016KT 150V210 9999 FEW027/// BKN068/// BKN078/// ///CB 22/15 Q1005 TEMPO VRB15G30KT 4000 SHRA BKN010 BKN015CB
  • 231300Z AUTO 18015KT 9999 FEW028/// OVC050/// ///CB 22/16 Q1006 TEMPO VRB25G35KT 1500 -TSRA BKN010 BKN015CB
  • 231230Z AUTO 18013KT 9999 FEW018/// BKN050/// OVC060/// ///CB 21/16 Q1006 TEMPO VRB25G35KT 1500 -TSRA BKN010 BKN015CB

TAF TAF LFBH
Valido dal 23 a 12 ore il 24 a 12 ore UTC


231100Z 2312/2412 20010KT 9999 SCT020
TEMPO 2312/2320 VRB15G30KT 4000 SHRA SCT010 BKN015TCU
PROB40
TEMPO 2312/2315 VRB25G35KT 1500 -TSRA BKN010 BKN015CB
BECMG 2320/2322 27010KT
BECMG 2405/2407 24020G30KT
TEMPO 2410/2412 3000 -SHRA BKN030TCU
ATIS : +33 5 46 00 13 92



MetMap, La meteo Aeronautica in un colpo d'occhio ! - Copyright ORBIFLY Dicembre 2007 - Disclaimer

ORBIFLY MET'MAP TEAM :

Programmazione e sviluppo : Alexandra Zaïnal
Concezione : Baudouin d'Aumeries
Aiuto per la programmazione : Marc-Olivier Méhu
Supporto tecnico e logistico : Manuel Goepfert
Aiuto per la traduzione : Arnaldo La Scala

Contatto : metmap@orbifly.com




FONTI E CREDITI :

   NOAA